Time;durP1;ratioP1;P1;durP2;ratioP2;P2;SDS_P1;SDS_P2;PMS_P1;PMS_P2;Temp;Humidity;BMP_temperature;BMP_pressure;BME280_temperature;BME280_humidity;BME280_pressure;Samples;Min_cycle;Max_cycle;Signal;HPM_P1;HPM_P2
2022/09/12 00:01:48;;;;;;;2.00;1.90;;;14.50;99.90;;;;;;5049364;28;20413;-74
2022/09/12 00:04:13;;;;;;;4.60;2.20;;;14.50;99.90;;;;;;5046085;28;20421;-74
2022/09/12 00:06:39;;;;;;;3.05;2.17;;;14.50;99.90;;;;;;5035605;28;20456;-74
2022/09/12 00:09:11;;;;;;;2.00;1.80;;;14.60;99.90;;;;;;5046177;28;20405;-74
2022/09/12 00:11:42;;;;;;;2.00;1.77;;;14.60;99.90;;;;;;5036255;28;20460;-74
2022/09/12 00:14:12;;;;;;;2.30;2.10;;;14.50;99.90;;;;;;5030518;28;20388;-74
2022/09/12 00:16:38;;;;;;;2.30;2.10;;;14.40;99.90;;;;;;5031049;28;20426;-74
2022/09/12 00:19:05;;;;;;;1.87;1.77;;;14.40;99.90;;;;;;5013110;28;20421;-74
2022/09/12 00:21:33;;;;;;;2.67;2.47;;;14.30;99.90;;;;;;5042594;28;20883;-74
2022/09/12 00:23:58;;;;;;;2.30;2.10;;;14.20;99.90;;;;;;5037943;28;20494;-74
2022/09/12 00:26:24;;;;;;;2.63;1.90;;;14.30;99.90;;;;;;5044417;28;21049;-74
2022/09/12 00:28:50;;;;;;;2.33;2.13;;;14.30;99.90;;;;;;5030523;28;20470;-74
2022/09/12 00:31:19;;;;;;;2.90;1.83;;;14.30;99.90;;;;;;5035805;28;20407;-74
2022/09/12 00:33:45;;;;;;;2.25;2.15;;;14.30;99.90;;;;;;5050174;28;20390;-74
2022/09/12 00:36:15;;;;;;;2.22;1.83;;;14.20;99.90;;;;;;5050615;28;20417;-74
2022/09/12 00:38:47;;;;;;;2.00;1.80;;;14.20;99.90;;;;;;5049272;28;20802;-74
2022/09/12 00:41:20;;;;;;;2.60;1.97;;;14.30;99.90;;;;;;5041385;28;20436;-74
2022/09/12 00:43:52;;;;;;;2.55;1.63;;;14.40;99.90;;;;;;5049977;28;20377;-74
2022/09/12 00:46:40;;;;;;;1.90;1.80;;;14.40;99.90;;;;;;5032422;28;20472;-74
2022/09/12 00:49:08;;;;;;;1.80;1.70;;;14.30;99.90;;;;;;5049142;28;20503;-73
2022/09/12 00:51:36;;;;;;;2.47;2.28;;;14.30;99.90;;;;;;5038327;28;20466;-73
2022/09/12 00:54:07;;;;;;;2.45;1.92;;;14.30;99.90;;;;;;5030082;28;20452;-73
2022/09/12 00:56:34;;;;;;;2.60;1.85;;;14.20;99.90;;;;;;5030309;28;20390;-73
2022/09/12 00:59:07;;;;;;;2.47;2.10;;;14.10;99.90;;;;;;5033084;28;20412;-73
2022/09/12 01:01:33;;;;;;;2.27;2.07;;;14.10;99.90;;;;;;5041374;28;20851;-74
2022/09/12 01:04:00;;;;;;;1.70;1.55;;;14.00;99.90;;;;;;5041140;28;20501;-74
2022/09/12 01:06:42;;;;;;;1.90;1.63;;;14.00;99.90;;;;;;5038549;28;20820;-74
2022/09/12 01:09:11;;;;;;;2.35;1.92;;;14.00;99.90;;;;;;5035185;28;20393;-73
2022/09/12 01:11:38;;;;;;;2.20;1.80;;;13.90;99.90;;;;;;5044572;28;20417;-73
2022/09/12 01:14:04;;;;;;;2.93;1.80;;;14.00;99.90;;;;;;5051321;28;20447;-73
2022/09/12 01:16:31;;;;;;;1.77;1.67;;;13.90;99.90;;;;;;5051849;28;20389;-73
2022/09/12 01:19:13;;;;;;;2.13;1.77;;;13.80;99.90;;;;;;5033892;28;20421;-73
2022/09/12 01:22:08;;;;;;;3.10;2.20;;;13.80;99.90;;;;;;5033666;28;20471;-73
2022/09/12 01:24:51;;;;;;;3.17;2.17;;;13.60;99.90;;;;;;5041598;28;20508;-74
2022/09/12 01:27:49;;;;;;;1.70;1.60;;;13.70;99.90;;;;;;5033374;28;20816;-74
2022/09/12 01:30:20;;;;;;;1.90;1.60;;;13.60;99.90;;;;;;5005877;28;20405;-74
2022/09/12 01:33:03;;;;;;;2.00;1.80;;;13.60;99.90;;;;;;5038280;28;20911;-74
2022/09/12 01:35:46;;;;;;;1.63;1.52;;;13.60;99.90;;;;;;5051111;28;20924;-73
2022/09/12 01:38:30;;;;;;;2.00;1.80;;;13.50;99.90;;;;;;5051614;28;20381;-74
2022/09/12 01:41:04;;;;;;;1.93;1.73;;;13.40;99.90;;;;;;5043095;28;20492;-74
2022/09/12 01:43:44;;;;;;;2.35;2.15;;;13.40;99.90;;;;;;5039004;28;20405;-74
2022/09/12 01:46:16;;;;;;;2.30;2.10;;;13.40;99.90;;;;;;5037850;28;20406;-74
2022/09/12 01:48:55;;;;;;;2.60;1.70;;;13.30;99.90;;;;;;5036112;28;20379;-74
2022/09/12 01:51:29;;;;;;;3.38;2.00;;;13.40;99.90;;;;;;5029848;28;20378;-74
2022/09/12 01:54:21;;;;;;;2.90;1.63;;;13.40;99.90;;;;;;5033274;28;20389;-74
2022/09/12 01:56:51;;;;;;;1.98;1.88;;;13.30;99.90;;;;;;5043088;28;20425;-74
2022/09/12 01:59:23;;;;;;;2.10;1.90;;;13.30;99.90;;;;;;5038977;28;20410;-74
2022/09/12 02:02:01;;;;;;;2.15;1.95;;;13.20;99.90;;;;;;5043735;28;20412;-74
2022/09/12 02:04:39;;;;;;;1.80;1.70;;;13.30;99.90;;;;;;5041398;28;20403;-74
2022/09/12 02:07:26;;;;;;;2.42;1.90;;;13.30;99.90;;;;;;5043832;28;20457;-74
2022/09/12 02:10:02;;;;;;;1.70;1.60;;;13.20;99.90;;;;;;5034397;28;20403;-74
2022/09/12 02:12:37;;;;;;;1.90;1.80;;;13.10;99.90;;;;;;5041323;28;20382;-74
2022/09/12 02:15:07;;;;;;;2.17;1.98;;;13.10;99.90;;;;;;5035541;28;20443;-74
2022/09/12 02:17:38;;;;;;;2.87;1.93;;;13.20;99.90;;;;;;5041306;28;20481;-74
2022/09/12 02:20:11;;;;;;;3.55;2.20;;;13.20;99.90;;;;;;5033112;28;20410;-74
2022/09/12 02:22:38;;;;;;;2.10;1.90;;;13.10;99.90;;;;;;5036412;28;20825;-74
2022/09/12 02:25:07;;;;;;;2.90;2.50;;;13.10;99.90;;;;;;5043590;28;20482;-74
2022/09/12 02:27:42;;;;;;;2.72;2.10;;;13.10;99.90;;;;;;5042690;28;20879;-74
2022/09/12 02:30:09;;;;;;;2.10;2.00;;;13.20;99.90;;;;;;5044761;28;20428;-75
2022/09/12 02:33:10;;;;;;;2.60;1.90;;;13.10;99.90;;;;;;5052728;28;20385;-74
2022/09/12 02:35:48;;;;;;;2.00;1.80;;;13.00;99.90;;;;;;5047607;28;20908;-74
2022/09/12 02:38:41;;;;;;;2.47;2.03;;;13.00;99.90;;;;;;5050537;28;20867;-74
2022/09/12 02:41:07;;;;;;;2.10;1.90;;;13.00;99.90;;;;;;5042409;28;20704;-75
2022/09/12 02:43:33;;;;;;;2.75;2.00;;;13.10;99.90;;;;;;5032517;28;20387;-74
2022/09/12 02:45:59;;;;;;;2.08;1.90;;;13.00;99.90;;;;;;5034421;28;20406;-74
2022/09/12 02:48:32;;;;;;;2.60;2.37;;;13.00;99.90;;;;;;5051568;28;20388;-74
2022/09/12 02:50:58;;;;;;;3.30;2.20;;;13.00;99.90;;;;;;5052530;28;20389;-75
2022/09/12 02:53:26;;;;;;;2.10;2.00;;;12.90;99.90;;;;;;5048707;28;20771;-75
2022/09/12 02:55:52;;;;;;;2.10;1.90;;;12.90;99.90;;;;;;5022208;28;20415;-75
2022/09/12 02:58:22;;;;;;;2.33;2.13;;;12.90;99.90;;;;;;5045911;28;20504;-75
2022/09/12 03:00:53;;;;;;;2.25;2.05;;;12.80;99.90;;;;;;5021549;28;20401;-75
2022/09/12 03:03:51;;;;;;;2.60;2.00;;;12.90;99.90;;;;;;5041114;28;20500;-74
2022/09/12 03:06:35;;;;;;;2.80;2.40;;;12.90;99.90;;;;;;5003364;28;20942;-74
2022/09/12 03:09:36;;;;;;;2.15;1.95;;;12.80;99.90;;;;;;5052063;28;20385;-75
2022/09/12 03:12:30;;;;;;;2.00;1.90;;;12.80;99.90;;;;;;5052137;28;20723;-74
2022/09/12 03:15:26;;;;;;;2.10;2.00;;;12.90;99.90;;;;;;5040160;28;20914;-74
2022/09/12 03:18:18;;;;;;;3.28;1.92;;;12.80;99.90;;;;;;5032301;28;20395;-74
2022/09/12 03:21:00;;;;;;;2.85;2.20;;;12.70;99.90;;;;;;5014426;28;20398;-74
2022/09/12 03:23:35;;;;;;;2.10;1.90;;;12.70;99.90;;;;;;5036124;28;20980;-74
2022/09/12 03:26:19;;;;;;;3.30;2.03;;;12.60;99.90;;;;;;5035998;28;20409;-74
2022/09/12 03:28:46;;;;;;;2.60;2.40;;;12.60;99.90;;;;;;5040292;28;20411;-74
2022/09/12 03:31:17;;;;;;;3.30;2.20;;;12.50;99.90;;;;;;5049631;28;20381;-74
2022/09/12 03:33:43;;;;;;;2.40;2.20;;;12.50;99.90;;;;;;5043875;28;20418;-74
2022/09/12 03:36:16;;;;;;;2.40;2.20;;;12.50;99.90;;;;;;5029798;28;20413;-74
2022/09/12 03:38:42;;;;;;;2.50;2.30;;;12.50;99.90;;;;;;5041354;28;20511;-74
2022/09/12 03:41:07;;;;;;;2.50;1.97;;;12.40;99.90;;;;;;5042438;28;20409;-75
2022/09/12 03:43:33;;;;;;;2.72;2.53;;;12.50;99.90;;;;;;5039418;28;20407;-73
2022/09/12 03:45:58;;;;;;;2.58;2.38;;;12.40;99.90;;;;;;5040137;28;20716;-73
2022/09/12 03:48:24;;;;;;;3.40;2.30;;;12.40;99.90;;;;;;5032076;28;20379;-73
2022/09/12 03:50:49;;;;;;;4.70;2.13;;;12.30;99.90;;;;;;5032688;28;20427;-73
2022/09/12 03:53:15;;;;;;;2.30;2.10;;;12.30;99.90;;;;;;5037173;28;20800;-73
2022/09/12 03:55:41;;;;;;;2.22;2.03;;;12.20;99.90;;;;;;5039990;28;20881;-73
2022/09/12 03:58:06;;;;;;;2.97;2.20;;;12.20;99.90;;;;;;5014241;28;20395;-73
2022/09/12 04:00:32;;;;;;;2.47;2.27;;;12.20;99.90;;;;;;5040935;28;20473;-73
2022/09/12 04:02:57;;;;;;;3.20;2.90;;;12.30;99.90;;;;;;5050363;28;20455;-73
2022/09/12 04:05:24;;;;;;;2.30;2.10;;;12.30;99.90;;;;;;5051268;28;20480;-73
2022/09/12 04:07:50;;;;;;;2.90;2.53;;;12.30;99.90;;;;;;5021543;28;20414;-73
2022/09/12 04:10:16;;;;;;;3.00;2.47;;;12.30;99.90;;;;;;5039750;28;20399;-73
2022/09/12 04:12:42;;;;;;;2.55;2.35;;;12.20;99.90;;;;;;5036094;28;20405;-74
2022/09/12 04:15:08;;;;;;;2.90;2.15;;;12.30;99.90;;;;;;5024208;28;20888;-73
2022/09/12 04:17:34;;;;;;;2.20;2.00;;;12.20;99.90;;;;;;5042410;28;20448;-73
2022/09/12 04:19:59;;;;;;;2.40;2.20;;;12.30;99.90;;;;;;5033261;28;20425;-73
2022/09/12 04:22:25;;;;;;;2.40;2.00;;;12.30;99.90;;;;;;5051041;28;20389;-73
2022/09/12 04:24:51;;;;;;;2.40;2.20;;;12.30;99.90;;;;;;5051152;28;20528;-73
2022/09/12 04:27:16;;;;;;;2.78;2.00;;;12.20;99.90;;;;;;5034823;28;20396;-73
2022/09/12 04:29:42;;;;;;;2.60;2.40;;;12.20;99.90;;;;;;5031382;28;20386;-73
2022/09/12 04:32:08;;;;;;;2.40;2.20;;;12.20;99.90;;;;;;5013975;28;20399;-73
2022/09/12 04:34:34;;;;;;;3.25;2.10;;;12.10;99.90;;;;;;5038151;28;20508;-73
2022/09/12 04:36:59;;;;;;;4.15;2.83;;;12.10;99.90;;;;;;5037299;28;20936;-72
2022/09/12 04:39:25;;;;;;;2.75;2.33;;;12.10;99.90;;;;;;5027860;28;20483;-73
2022/09/12 04:41:51;;;;;;;3.20;2.40;;;12.10;99.90;;;;;;5034503;28;20407;-72
2022/09/12 04:44:16;;;;;;;2.90;2.60;;;11.90;99.90;;;;;;5040129;28;20412;-73
2022/09/12 04:46:44;;;;;;;2.37;2.17;;;12.00;99.90;;;;;;5024434;28;20405;-72
2022/09/12 04:49:11;;;;;;;3.40;3.10;;;12.10;99.90;;;;;;5017463;28;21072;-73
2022/09/12 04:51:39;;;;;;;3.67;2.03;;;12.10;99.90;;;;;;5035602;28;20917;-73
2022/09/12 04:54:12;;;;;;;2.40;2.20;;;12.10;99.90;;;;;;5026373;28;20413;-72
2022/09/12 04:56:39;;;;;;;4.82;2.55;;;12.10;99.90;;;;;;5049961;28;21050;-73
2022/09/12 04:59:05;;;;;;;2.70;2.30;;;12.10;99.90;;;;;;5043768;28;20420;-73
2022/09/12 05:01:31;;;;;;;3.15;2.40;;;12.10;99.90;;;;;;5038872;28;20404;-73
2022/09/12 05:03:58;;;;;;;2.70;2.08;;;12.00;99.90;;;;;;5036393;28;20406;-73
2022/09/12 05:06:27;;;;;;;4.07;2.58;;;12.00;99.90;;;;;;5040912;28;20421;-73
2022/09/12 05:08:54;;;;;;;2.40;1.90;;;12.10;99.90;;;;;;5040238;28;20384;-73
2022/09/12 05:11:23;;;;;;;2.38;2.17;;;12.00;99.90;;;;;;5040721;28;21171;-73
2022/09/12 05:13:49;;;;;;;2.30;2.10;;;12.00;99.90;;;;;;5023328;28;20403;-72
2022/09/12 05:16:16;;;;;;;2.30;2.10;;;12.00;99.90;;;;;;5042145;28;20941;-73
2022/09/12 05:18:43;;;;;;;2.10;1.90;;;12.00;99.90;;;;;;5041947;28;20424;-72
2022/09/12 05:21:11;;;;;;;2.60;2.10;;;12.10;99.90;;;;;;5024081;28;20980;-72
2022/09/12 05:23:37;;;;;;;2.80;1.90;;;12.10;99.90;;;;;;5029828;28;20402;-72
2022/09/12 05:26:04;;;;;;;2.70;2.13;;;12.10;99.90;;;;;;5046111;28;21027;-73
2022/09/12 05:28:33;;;;;;;3.85;2.45;;;12.10;99.90;;;;;;5019917;28;20399;-72
2022/09/12 05:31:22;;;;;;;3.20;2.90;;;12.10;99.90;;;;;;5042423;28;20480;-73
2022/09/12 05:33:49;;;;;;;2.40;2.20;;;12.10;99.90;;;;;;5028172;28;20421;-73
2022/09/12 05:36:23;;;;;;;2.83;2.57;;;12.20;99.90;;;;;;5026111;28;20480;-73
2022/09/12 05:38:49;;;;;;;3.00;2.30;;;12.10;99.90;;;;;;5044868;28;20412;-73
2022/09/12 05:41:20;;;;;;;3.05;2.45;;;12.10;99.90;;;;;;5047728;28;21369;-73
2022/09/12 05:43:49;;;;;;;2.92;2.50;;;12.10;99.90;;;;;;5039460;28;20439;-73
2022/09/12 05:46:17;;;;;;;2.60;2.40;;;12.20;99.90;;;;;;5037073;28;21114;-73
2022/09/12 05:48:45;;;;;;;4.63;2.60;;;12.30;99.90;;;;;;5044664;28;20381;-73
2022/09/12 05:51:16;;;;;;;3.80;3.40;;;12.30;99.90;;;;;;5035575;28;20422;-73
2022/09/12 05:53:41;;;;;;;5.20;2.70;;;12.40;99.90;;;;;;5036202;28;20383;-73
2022/09/12 05:56:10;;;;;;;5.40;2.80;;;12.40;99.90;;;;;;5017927;28;20405;-73
2022/09/12 05:58:38;;;;;;;4.60;2.75;;;12.40;99.90;;;;;;5055073;28;20393;-73
2022/09/12 06:01:10;;;;;;;3.25;2.85;;;12.50;99.90;;;;;;5049171;28;20400;-73
2022/09/12 06:03:40;;;;;;;3.88;3.45;;;12.60;99.90;;;;;;5040100;28;20797;-73
2022/09/12 06:06:06;;;;;;;4.00;3.47;;;12.80;99.90;;;;;;5036886;28;20415;-73
2022/09/12 06:08:33;;;;;;;3.13;2.83;;;12.90;99.90;;;;;;5044828;28;20407;-73
2022/09/12 06:11:03;;;;;;;4.80;3.38;;;12.90;99.90;;;;;;5035357;28;20431;-73
2022/09/12 06:13:35;;;;;;;3.85;3.45;;;13.00;99.90;;;;;;5036309;28;20468;-73
2022/09/12 06:16:09;;;;;;;4.60;3.17;;;13.00;99.90;;;;;;5047947;28;20411;-73
2022/09/12 06:18:36;;;;;;;4.18;3.15;;;13.00;99.90;;;;;;5045440;28;20885;-73
2022/09/12 06:21:03;;;;;;;3.55;2.53;;;13.20;99.90;;;;;;5037930;28;20469;-73
2022/09/12 06:23:29;;;;;;;3.88;2.78;;;13.20;99.90;;;;;;5027301;28;20742;-73
2022/09/12 06:25:54;;;;;;;2.45;2.10;;;13.30;99.90;;;;;;5022939;28;20414;-73
2022/09/12 06:28:20;;;;;;;3.00;2.60;;;13.50;99.90;;;;;;5037847;28;20388;-73
2022/09/12 06:30:46;;;;;;;3.50;2.20;;;13.50;99.90;;;;;;5029847;28;20391;-73
2022/09/12 06:33:11;;;;;;;2.63;2.42;;;13.60;99.90;;;;;;5029255;28;20383;-73
2022/09/12 06:35:37;;;;;;;2.72;2.20;;;13.70;99.90;;;;;;5030431;28;20421;-73
2022/09/12 06:38:04;;;;;;;2.95;2.50;;;13.80;99.90;;;;;;5048642;28;20840;-73
2022/09/12 06:40:30;;;;;;;2.20;2.00;;;13.80;99.90;;;;;;5041712;28;20817;-73
2022/09/12 06:42:56;;;;;;;2.25;2.05;;;13.80;99.90;;;;;;5052488;28;20440;-74
2022/09/12 06:45:21;;;;;;;2.58;2.08;;;13.90;99.90;;;;;;5022363;28;20437;-73
2022/09/12 06:47:47;;;;;;;2.10;2.00;;;13.90;99.90;;;;;;5053101;28;20387;-73
2022/09/12 06:50:13;;;;;;;2.20;2.00;;;14.00;99.90;;;;;;5063114;28;20407;-73
2022/09/12 06:52:38;;;;;;;2.13;2.00;;;14.00;99.90;;;;;;5049363;28;20386;-73
2022/09/12 06:55:04;;;;;;;2.22;2.03;;;14.10;99.90;;;;;;5049330;28;20484;-73
2022/09/12 06:57:31;;;;;;;2.75;2.10;;;14.20;99.90;;;;;;5058018;28;20401;-74
2022/09/12 06:59:57;;;;;;;2.33;1.80;;;14.40;99.90;;;;;;5052658;28;20392;-73
2022/09/12 07:02:24;;;;;;;3.33;1.92;;;14.40;99.90;;;;;;5024832;28;20383;-72
2022/09/12 07:04:50;;;;;;;13.73;9.15;;;14.50;99.90;;;;;;5051454;28;20416;-73
2022/09/12 07:07:16;;;;;;;14.65;9.27;;;14.70;99.90;;;;;;5052358;28;20778;-73
2022/09/12 07:09:42;;;;;;;2.63;1.95;;;14.70;99.90;;;;;;5044668;28;20392;-73
2022/09/12 07:12:07;;;;;;;3.00;2.30;;;14.80;99.90;;;;;;5052350;28;20500;-73
2022/09/12 07:14:33;;;;;;;2.50;2.30;;;14.90;99.90;;;;;;5052465;28;20417;-73
2022/09/12 07:16:58;;;;;;;2.80;2.20;;;14.90;99.90;;;;;;5052902;28;20859;-73
2022/09/12 07:19:24;;;;;;;4.30;2.40;;;15.00;99.90;;;;;;5052380;28;20471;-73
2022/09/12 07:21:50;;;;;;;2.40;2.20;;;15.10;99.90;;;;;;5052499;28;20385;-73
2022/09/12 07:24:15;;;;;;;3.17;2.87;;;15.20;99.90;;;;;;5051964;28;20931;-73
2022/09/12 07:26:41;;;;;;;4.60;3.13;;;15.40;99.90;;;;;;5040645;28;20438;-74
2022/09/12 07:29:12;;;;;;;5.70;3.50;;;15.40;99.90;;;;;;5032452;28;20410;-73
2022/09/12 07:31:38;;;;;;;3.90;3.50;;;15.60;99.90;;;;;;5014566;28;20936;-73
2022/09/12 07:34:06;;;;;;;3.90;3.50;;;15.60;99.90;;;;;;5031832;28;20383;-73
2022/09/12 07:36:32;;;;;;;4.10;3.70;;;15.60;99.90;;;;;;5041644;28;20412;-74
2022/09/12 07:38:58;;;;;;;3.80;3.40;;;15.60;99.90;;;;;;5043955;28;21141;-72
2022/09/12 07:41:26;;;;;;;5.50;3.50;;;15.80;99.90;;;;;;5022883;28;20437;-72
2022/09/12 07:43:54;;;;;;;5.95;3.35;;;15.90;99.90;;;;;;5044203;28;20397;-73
2022/09/12 07:46:21;;;;;;;3.78;3.35;;;16.10;99.90;;;;;;5031491;28;20492;-73
2022/09/12 07:48:51;;;;;;;3.20;2.90;;;16.10;99.90;;;;;;5038182;28;20426;-73
2022/09/12 07:51:17;;;;;;;3.70;2.92;;;16.10;99.90;;;;;;5045924;28;20406;-72
2022/09/12 07:53:43;;;;;;;3.20;2.90;;;16.30;99.90;;;;;;5045839;28;20429;-72
2022/09/12 07:56:09;;;;;;;3.72;3.20;;;16.30;99.90;;;;;;5057149;28;21287;-72
2022/09/12 07:58:36;;;;;;;4.07;3.53;;;16.30;99.90;;;;;;5055918;28;20831;-73
2022/09/12 08:01:23;;;;;;;3.78;3.30;;;16.30;99.90;;;;;;5049409;28;20402;-75
2022/09/12 08:03:53;;;;;;;3.67;2.80;;;16.50;99.90;;;;;;5041110;28;20401;-72
2022/09/12 08:06:27;;;;;;;4.50;3.17;;;16.60;99.90;;;;;;5041436;28;20416;-74
2022/09/12 08:08:57;;;;;;;4.32;2.78;;;16.70;99.90;;;;;;5046063;28;20387;-73
2022/09/12 08:11:25;;;;;;;2.97;2.78;;;16.90;99.90;;;;;;5051128;28;20385;-71
2022/09/12 08:13:52;;;;;;;3.15;2.85;;;16.90;99.90;;;;;;5043322;28;20407;-72
2022/09/12 08:16:20;;;;;;;3.60;3.00;;;17.00;99.90;;;;;;5020858;28;21135;-72
2022/09/12 08:18:47;;;;;;;3.28;2.97;;;17.10;99.90;;;;;;5043150;28;21354;-72
2022/09/12 08:21:16;;;;;;;4.40;3.38;;;17.20;99.90;;;;;;5043679;28;20416;-73
2022/09/12 08:23:43;;;;;;;6.07;3.78;;;17.20;99.90;;;;;;5035069;28;20741;-73
2022/09/12 08:26:10;;;;;;;4.80;3.90;;;17.20;99.90;;;;;;5024614;28;20432;-72
2022/09/12 08:28:36;;;;;;;5.57;3.65;;;17.30;99.90;;;;;;5029208;28;20387;-72
2022/09/12 08:31:08;;;;;;;3.80;3.50;;;17.40;99.90;;;;;;5010518;28;20387;-73
2022/09/12 08:33:34;;;;;;;4.78;3.50;;;17.40;99.90;;;;;;5029325;28;20421;-72
2022/09/12 08:36:04;;;;;;;5.60;3.50;;;17.40;99.90;;;;;;5012622;28;20884;-72
2022/09/12 08:38:30;;;;;;;4.70;3.60;;;17.40;99.90;;;;;;5015170;28;20387;-72
2022/09/12 08:41:07;;;;;;;3.90;3.50;;;17.50;99.90;;;;;;5045837;28;20421;-71
2022/09/12 08:43:51;;;;;;;4.60;3.38;;;17.60;99.90;;;;;;5045594;28;20911;-71
2022/09/12 08:46:45;;;;;;;3.50;3.10;;;17.80;99.90;;;;;;5023000;28;20489;-72
2022/09/12 08:49:21;;;;;;;5.38;3.85;;;17.90;99.90;;;;;;5049994;28;20423;-70
2022/09/12 08:51:47;;;;;;;3.80;3.40;;;17.80;99.90;;;;;;5050742;28;20407;-71
2022/09/12 08:54:22;;;;;;;5.38;3.20;;;17.80;99.90;;;;;;5032558;28;20480;-73
2022/09/12 08:56:48;;;;;;;6.53;3.67;;;17.80;99.90;;;;;;5051514;28;20462;-72
2022/09/12 08:59:14;;;;;;;3.30;3.00;;;17.80;99.90;;;;;;5050576;28;20761;-73
2022/09/12 09:01:44;;;;;;;3.33;3.03;;;17.90;99.90;;;;;;5050100;28;20385;-73
2022/09/12 09:04:21;;;;;;;3.20;2.90;;;17.90;99.90;;;;;;5032205;28;20424;-73
2022/09/12 09:07:25;;;;;;;6.05;3.17;;;17.90;99.90;;;;;;5050702;28;20433;-74
2022/09/12 09:10:06;;;;;;;5.18;3.25;;;18.00;99.90;;;;;;5050596;28;20378;-73
2022/09/12 09:12:37;;;;;;;3.22;3.00;;;18.10;99.90;;;;;;5219215;22;20439;-73
2022/09/12 09:15:08;;;;;;;3.60;3.20;;;18.20;99.90;;;;;;5070510;28;20376;-72
2022/09/12 09:17:41;;;;;;;3.53;3.22;;;18.20;99.90;;;;;;5070726;28;20783;-71
2022/09/12 09:20:14;;;;;;;2.83;2.60;;;18.30;99.90;;;;;;5070167;28;20858;-71
2022/09/12 09:22:48;;;;;;;4.22;2.85;;;18.40;99.90;;;;;;5069978;28;20376;-72
2022/09/12 09:25:22;;;;;;;3.78;2.92;;;18.50;99.90;;;;;;5070209;28;20453;-71
2022/09/12 09:28:10;;;;;;;3.03;2.72;;;18.40;99.90;;;;;;5050205;28;20385;-71
2022/09/12 09:30:36;;;;;;;2.78;2.58;;;18.50;99.90;;;;;;5049761;28;20373;-71
2022/09/12 09:33:08;;;;;;;5.00;3.10;;;18.60;99.90;;;;;;5048588;28;20477;-72
2022/09/12 09:35:41;;;;;;;5.82;3.15;;;18.60;99.90;;;;;;5050098;28;20397;-73
2022/09/12 09:38:23;;;;;;;3.13;2.70;;;18.60;99.90;;;;;;5050152;28;20408;-73
2022/09/12 09:41:27;;;;;;;4.30;2.90;;;18.60;99.90;;;;;;5049886;28;20872;-73
2022/09/12 09:43:52;;;;;;;4.65;3.10;;;18.70;99.90;;;;;;5049693;28;20545;-73
2022/09/12 09:46:18;;;;;;;2.60;2.40;;;18.90;99.90;;;;;;5031994;28;20503;-74
2022/09/12 09:48:47;;;;;;;3.20;2.90;;;18.80;99.90;;;;;;5050042;28;20381;-74
2022/09/12 09:51:23;;;;;;;3.63;2.60;;;18.80;99.90;;;;;;5049791;28;20720;-74
2022/09/12 09:54:01;;;;;;;4.07;2.97;;;18.90;99.90;;;;;;5031786;28;20400;-72
2022/09/12 09:56:38;;;;;;;3.47;2.80;;;19.10;99.90;;;;;;5049888;28;20384;-74
2022/09/12 09:59:08;;;;;;;3.50;2.63;;;19.30;99.90;;;;;;5031351;28;20422;-73
2022/09/12 10:01:34;;;;;;;2.80;2.60;;;19.30;99.90;;;;;;5031592;28;20447;-74
2022/09/12 10:04:00;;;;;;;2.80;2.60;;;19.40;99.90;;;;;;5049255;28;20378;-74
2022/09/12 10:06:31;;;;;;;3.10;2.40;;;19.50;99.90;;;;;;5049856;28;20432;-73
2022/09/12 10:09:12;;;;;;;2.60;2.40;;;19.60;99.90;;;;;;5049878;28;20389;-73
2022/09/12 10:11:38;;;;;;;2.70;2.30;;;19.60;99.90;;;;;;5049654;28;20871;-73
2022/09/12 10:14:04;;;;;;;4.13;2.60;;;19.60;99.90;;;;;;5052492;28;20393;-73
2022/09/12 10:16:52;;;;;;;2.50;2.25;;;19.60;99.90;;;;;;5053626;28;20381;-74
2022/09/12 10:19:31;;;;;;;2.83;2.10;;;19.80;99.90;;;;;;5053624;28;20385;-73
2022/09/12 10:21:59;;;;;;;2.50;2.30;;;19.80;99.90;;;;;;5053552;28;20481;-74
2022/09/12 10:24:31;;;;;;;2.40;2.20;;;19.80;99.90;;;;;;5053042;28;20444;-74
2022/09/12 10:27:04;;;;;;;1.70;1.60;;;19.80;99.90;;;;;;5067203;28;20475;-74
2022/09/12 10:29:33;;;;;;;2.25;2.05;;;19.90;99.90;;;;;;5073571;28;20378;-73
2022/09/12 10:32:03;;;;;;;2.38;1.80;;;20.00;99.90;;;;;;5073037;28;20379;-73
2022/09/12 10:34:34;;;;;;;2.20;1.70;;;20.20;99.90;;;;;;5072839;28;20777;-74
2022/09/12 10:37:18;;;;;;;3.27;2.00;;;20.40;99.90;;;;;;5055459;28;20380;-73
2022/09/12 10:39:55;;;;;;;2.20;2.00;;;20.40;99.90;;;;;;5073201;28;20384;-74
2022/09/12 10:42:47;;;;;;;2.60;2.10;;;20.40;99.90;;;;;;5055050;28;20390;-72
2022/09/12 10:45:36;;;;;;;2.13;1.92;;;20.70;99.90;;;;;;5073003;28;20781;-73
2022/09/12 10:48:24;;;;;;;1.87;1.67;;;20.90;99.90;;;;;;5073089;28;20382;-72
2022/09/12 10:50:49;;;;;;;2.70;2.20;;;21.00;99.90;;;;;;5072920;28;20406;-73
2022/09/12 10:53:22;;;;;;;2.63;2.00;;;21.00;99.90;;;;;;5072529;28;20372;-73
2022/09/12 10:56:32;;;;;;;2.72;2.10;;;21.10;99.90;;;;;;5072896;28;20379;-73
2022/09/12 10:59:19;;;;;;;2.40;2.20;;;21.30;99.90;;;;;;5034197;28;20384;-73
2022/09/12 11:01:59;;;;;;;2.17;1.92;;;21.40;99.90;;;;;;5071597;28;20899;-71
2022/09/12 11:04:57;;;;;;;2.10;1.90;;;21.40;99.90;;;;;;5066592;28;20894;-72
2022/09/12 11:07:46;;;;;;;3.08;2.20;;;21.50;99.90;;;;;;5059853;28;20406;-72
2022/09/12 11:10:29;;;;;;;2.22;2.00;;;21.80;99.90;;;;;;5061753;28;20418;-73
2022/09/12 11:13:18;;;;;;;2.85;2.00;;;21.90;99.90;;;;;;5058627;28;20396;-72
2022/09/12 11:16:12;;;;;;;2.22;1.70;;;22.10;99.90;;;;;;5054925;28;20406;-72
2022/09/12 11:19:02;;;;;;;2.35;1.92;;;21.90;99.90;;;;;;5060428;28;20808;-72
2022/09/12 11:21:48;;;;;;;4.22;2.15;;;22.20;99.90;;;;;;5060479;28;20405;-72
2022/09/12 11:24:26;;;;;;;2.90;1.90;;;22.60;99.90;;;;;;5065252;28;20477;-72
2022/09/12 11:27:27;;;;;;;2.30;2.10;;;22.60;99.90;;;;;;5067942;28;20376;-74
2022/09/12 11:30:12;;;;;;;3.08;1.90;;;23.50;98.80;;;;;;5063634;28;20403;-73
2022/09/12 11:33:06;;;;;;;2.28;1.80;;;24.80;95.10;;;;;;5061381;28;20443;-74
2022/09/12 11:35:34;;;;;;;1.50;1.40;;;25.60;91.70;;;;;;5066148;28;20485;-74
2022/09/12 11:38:14;;;;;;;2.45;1.92;;;25.70;91.60;;;;;;5060336;28;20386;-73
2022/09/12 11:41:14;;;;;;;2.00;1.90;;;26.00;87.00;;;;;;5058447;28;20409;-74
2022/09/12 11:43:47;;;;;;;3.00;1.92;;;26.20;89.10;;;;;;5058804;28;20445;-74
2022/09/12 11:46:31;;;;;;;2.05;1.85;;;26.80;86.20;;;;;;5064711;28;20438;-73
2022/09/12 11:48:59;;;;;;;3.17;2.20;;;27.40;78.90;;;;;;5064549;28;20406;-73
2022/09/12 11:51:35;;;;;;;2.00;1.70;;;26.70;78.60;;;;;;5062371;28;20923;-74
2022/09/12 11:54:12;;;;;;;2.08;1.88;;;26.90;80.40;;;;;;5062781;28;20446;-74
2022/09/12 11:56:44;;;;;;;2.10;1.73;;;26.80;78.60;;;;;;5054113;28;20381;-73
2022/09/12 11:59:43;;;;;;;1.98;1.80;;;26.50;79.90;;;;;;5053937;28;20454;-74
2022/09/12 12:02:48;;;;;;;2.30;1.73;;;26.90;77.60;;;;;;5048253;28;20387;-74
2022/09/12 12:05:23;;;;;;;1.90;1.80;;;26.70;80.30;;;;;;5010168;28;20421;-74
2022/09/12 12:07:57;;;;;;;1.60;1.50;;;26.80;80.00;;;;;;5067894;28;20462;-74
2022/09/12 12:10:42;;;;;;;1.77;1.60;;;26.30;78.20;;;;;;5062543;28;20405;-74
2022/09/12 12:13:20;;;;;;;2.22;1.45;;;26.60;77.20;;;;;;5071075;28;20432;-74
2022/09/12 12:16:06;;;;;;;1.73;1.60;;;26.00;83.10;;;;;;5052248;28;20389;-74
2022/09/12 12:18:35;;;;;;;2.20;1.88;;;25.70;82.00;;;;;;5053187;28;20886;-74
2022/09/12 12:21:30;;;;;;;1.95;1.60;;;25.60;84.50;;;;;;5060220;28;20439;-74
2022/09/12 12:24:07;;;;;;;2.13;1.70;;;26.00;85.30;;;;;;5061504;28;20753;-74
2022/09/12 12:26:42;;;;;;;2.65;1.80;;;25.90;80.40;;;;;;5059168;28;20475;-74
2022/09/12 12:29:12;;;;;;;2.20;1.60;;;25.50;85.90;;;;;;5050552;28;20496;-73
2022/09/12 12:32:04;;;;;;;1.88;1.67;;;25.80;81.70;;;;;;5066404;28;20392;-72
2022/09/12 12:34:37;;;;;;;1.90;1.70;;;25.60;81.00;;;;;;5015555;28;20401;-74
2022/09/12 12:37:18;;;;;;;2.90;1.80;;;25.70;83.90;;;;;;5066918;28;20421;-73
2022/09/12 12:39:46;;;;;;;3.00;1.88;;;25.50;84.40;;;;;;5033491;28;20895;-73
2022/09/12 12:42:34;;;;;;;1.70;1.60;;;25.00;83.00;;;;;;5050889;28;20480;-74
2022/09/12 12:45:03;;;;;;;1.90;1.63;;;25.20;84.80;;;;;;5059832;28;20449;-74
2022/09/12 12:47:32;;;;;;;1.50;1.40;;;25.40;85.50;;;;;;5062357;28;20894;-74
2022/09/12 12:50:06;;;;;;;1.70;1.60;;;25.80;84.60;;;;;;5057999;28;20412;-74
2022/09/12 12:52:49;;;;;;;2.90;1.70;;;25.80;80.80;;;;;;5061560;28;20399;-73
2022/09/12 12:55:27;;;;;;;1.80;1.50;;;25.80;79.90;;;;;;5070234;28;20445;-74
2022/09/12 12:57:55;;;;;;;3.30;1.40;;;25.90;83.00;;;;;;5070655;28;20379;-74
2022/09/12 13:00:26;;;;;;;1.50;1.40;;;26.00;85.40;;;;;;5070359;28;20380;-74
2022/09/12 13:03:06;;;;;;;2.10;1.40;;;25.50;77.90;;;;;;5052292;28;20391;-74
2022/09/12 13:05:50;;;;;;;1.90;1.70;;;25.70;81.00;;;;;;5070824;28;20403;-73
2022/09/12 13:08:15;;;;;;;1.70;1.30;;;26.10;81.00;;;;;;5070646;28;20388;-74
2022/09/12 13:10:53;;;;;;;1.40;1.30;;;26.30;79.30;;;;;;5070493;28;20474;-74
2022/09/12 13:13:49;;;;;;;2.00;1.50;;;26.10;82.30;;;;;;5070112;28;20435;-74
2022/09/12 13:16:33;;;;;;;1.50;1.40;;;25.90;83.70;;;;;;5056811;28;20897;-73
2022/09/12 13:19:19;;;;;;;1.60;1.50;;;26.00;80.90;;;;;;5070317;28;20376;-74